createdAt,value
2019-02-21T00:01:01.148Z,22.60
2019-02-21T00:03:30.418Z,24.30
2019-02-21T00:05:59.866Z,20.90
2019-02-21T00:08:29.096Z,21.03
2019-02-21T00:10:59.141Z,18.87
2019-02-21T00:13:29.059Z,19.43
2019-02-21T00:15:59.203Z,18.27
2019-02-21T00:18:29.275Z,21.67
2019-02-21T00:20:59.201Z,24.27
2019-02-21T00:23:28.479Z,18.63
2019-02-21T00:25:58.625Z,21.53
2019-02-21T00:28:27.931Z,23.53
2019-02-21T00:30:57.241Z,21.03
2019-02-21T00:33:28.339Z,22.40
2019-02-21T00:35:58.414Z,22.10
2019-02-21T00:38:28.526Z,22.07
2019-02-21T00:40:57.822Z,27.70
2019-02-21T00:43:27.308Z,22.77
2019-02-21T00:45:56.585Z,24.20
2019-02-21T00:48:25.861Z,26.63
2019-02-21T00:50:55.138Z,23.40
2019-02-21T00:53:25.450Z,26.07
2019-02-21T00:55:54.956Z,22.33
2019-02-21T00:58:24.211Z,22.97
2019-02-21T01:00:53.440Z,23.57
2019-02-21T01:03:22.628Z,26.03
2019-02-21T01:05:51.805Z,24.53
2019-02-21T01:08:21.095Z,25.90
2019-02-21T01:10:50.294Z,25.63
2019-02-21T01:13:19.464Z,27.80
2019-02-21T01:15:48.703Z,24.57
2019-02-21T01:18:17.935Z,22.83
2019-02-21T01:20:47.209Z,23.90
2019-02-21T01:23:16.436Z,24.33
2019-02-21T01:25:45.767Z,25.13
2019-02-21T01:28:15.035Z,27.30
2019-02-21T01:30:44.373Z,26.53
2019-02-21T01:33:16.479Z,23.77
2019-02-21T01:35:45.750Z,26.73
2019-02-21T01:38:15.140Z,29.73
2019-02-21T01:40:44.447Z,27.10
2019-02-21T01:43:13.808Z,27.77
2019-02-21T01:45:43.133Z,26.83
2019-02-21T01:48:12.407Z,27.27
2019-02-21T01:50:41.620Z,25.10
2019-02-21T01:53:10.859Z,26.20
2019-02-21T01:55:40.336Z,26.67
2019-02-21T01:58:10.112Z,27.27
2019-02-21T02:00:39.550Z,22.23
2019-02-21T02:03:08.830Z,28.87
2019-02-21T02:05:38.012Z,26.27
2019-02-21T02:08:07.272Z,22.23
2019-02-21T02:10:36.508Z,24.70
2019-02-21T02:13:05.824Z,25.27
2019-02-21T02:15:35.047Z,22.97
2019-02-21T02:18:04.257Z,27.87
2019-02-21T02:20:33.514Z,25.47
2019-02-21T02:23:02.948Z,27.63
2019-02-21T02:25:32.416Z,30.27
2019-02-21T02:28:01.682Z,26.57
2019-02-21T02:30:30.916Z,29.40
2019-02-21T02:33:00.090Z,28.60
2019-02-21T02:35:29.296Z,28.33
2019-02-21T02:37:58.582Z,25.93
2019-02-21T02:40:27.757Z,29.43
2019-02-21T02:42:57.040Z,26.40
2019-02-21T02:45:26.432Z,30.03
2019-02-21T02:47:55.648Z,30.50
2019-02-21T02:50:24.934Z,32.10
2019-02-21T02:52:54.155Z,27.90
2019-02-21T02:55:23.442Z,30.37
2019-02-21T02:57:52.709Z,27.87
2019-02-21T03:00:22.002Z,31.40
2019-02-21T03:02:51.439Z,27.00
2019-02-21T03:05:20.633Z,34.27
2019-02-21T03:07:49.901Z,30.90
2019-02-21T03:10:19.121Z,34.03
2019-02-21T03:12:48.391Z,31.93
2019-02-21T03:15:17.710Z,38.87
2019-02-21T03:17:46.937Z,37.57
2019-02-21T03:20:16.477Z,32.23
2019-02-21T03:22:45.799Z,31.83
2019-02-21T03:25:15.061Z,31.87
2019-02-21T03:27:44.264Z,34.47
2019-02-21T03:30:13.563Z,34.70
2019-02-21T03:32:42.923Z,30.83
2019-02-21T03:35:14.194Z,37.00
2019-02-21T03:37:43.496Z,41.27
2019-02-21T03:40:12.858Z,33.70
2019-02-21T03:42:42.063Z,38.37
2019-02-21T03:45:12.089Z,35.93
2019-02-21T03:47:41.287Z,36.23
2019-02-21T03:50:10.674Z,36.53
2019-02-21T03:52:39.890Z,32.37
2019-02-21T03:55:09.200Z,38.40
2019-02-21T03:57:38.456Z,38.07
2019-02-21T04:00:08.108Z,38.30
2019-02-21T04:02:38.008Z,39.30
2019-02-21T04:05:07.328Z,37.30
2019-02-21T04:07:36.520Z,37.13
2019-02-21T04:10:06.209Z,40.70
2019-02-21T04:12:35.420Z,45.07
2019-02-21T04:15:05.479Z,42.00
2019-02-21T04:17:34.833Z,42.87
2019-02-21T04:20:04.163Z,37.87
2019-02-21T04:22:33.384Z,43.93
2019-02-21T04:25:02.658Z,41.57
2019-02-21T04:27:31.857Z,41.40
2019-02-21T04:30:01.105Z,43.00
2019-02-21T04:32:30.568Z,42.57
2019-02-21T04:34:59.800Z,43.93
2019-02-21T04:37:29.027Z,48.30
2019-02-21T04:39:58.242Z,45.37
2019-02-21T04:42:27.527Z,44.90
2019-02-21T04:44:56.847Z,44.00
2019-02-21T04:47:26.106Z,49.73
2019-02-21T04:49:55.384Z,52.17
2019-02-21T04:52:24.681Z,47.47
2019-02-21T04:54:53.886Z,45.23
2019-02-21T04:57:23.045Z,46.27
2019-02-21T04:59:52.368Z,44.27
2019-02-21T05:02:29.256Z,46.37
2019-02-21T05:04:52.597Z,48.83
2019-02-21T05:07:40.916Z,50.77
2019-02-21T05:10:10.149Z,45.70
2019-02-21T05:12:39.430Z,51.27
2019-02-21T05:15:08.646Z,50.47
2019-02-21T05:17:37.859Z,50.13
2019-02-21T05:20:07.190Z,53.00
2019-02-21T05:22:36.486Z,50.90
2019-02-21T05:25:06.150Z,48.73
2019-02-21T05:27:38.386Z,49.80
2019-02-21T05:30:10.605Z,45.57
2019-02-21T05:33:17.058Z,48.17
2019-02-21T05:35:56.418Z,54.53
2019-02-21T05:38:43.916Z,49.73
2019-02-21T05:41:30.946Z,46.77
2019-02-21T05:44:22.259Z,48.70
2019-02-21T05:46:57.244Z,52.60
2019-02-21T05:49:32.999Z,54.40
2019-02-21T05:52:07.583Z,54.50
2019-02-21T05:55:01.853Z,53.50
2019-02-21T05:57:56.153Z,57.80
2019-02-21T06:00:43.090Z,52.13
2019-02-21T06:03:31.489Z,56.57
2019-02-21T06:06:18.449Z,58.90
2019-02-21T06:09:15.984Z,62.47
2019-02-21T06:12:07.060Z,62.30
2019-02-21T06:14:58.693Z,57.10
2019-02-21T06:17:41.508Z,57.70
2019-02-21T06:20:33.809Z,51.97
2019-02-21T06:23:13.048Z,49.17
2019-02-21T06:25:53.067Z,51.33
2019-02-21T06:28:28.503Z,56.00
2019-02-21T06:31:01.737Z,60.10
2019-02-21T06:33:31.012Z,52.50
2019-02-21T06:36:00.219Z,59.27
2019-02-21T06:38:29.466Z,61.50
2019-02-21T06:40:58.825Z,56.73
2019-02-21T06:43:28.008Z,55.23
2019-02-21T06:45:58.085Z,56.03
2019-02-21T06:48:27.699Z,55.87
2019-02-21T06:50:56.952Z,57.20
2019-02-21T06:53:26.262Z,64.90
2019-02-21T06:55:55.599Z,58.60
2019-02-21T06:58:24.790Z,61.67
2019-02-21T07:00:54.101Z,62.50
2019-02-21T07:03:23.408Z,62.20
2019-02-21T07:05:52.907Z,64.53
2019-02-21T07:08:22.128Z,68.40
2019-02-21T07:10:51.333Z,64.07
2019-02-21T07:13:26.711Z,67.27
2019-02-21T07:15:51.468Z,58.87
2019-02-21T07:18:20.750Z,62.90
2019-02-21T07:20:49.989Z,68.30
2019-02-21T07:23:19.697Z,67.73
2019-02-21T07:25:51.819Z,61.37
2019-02-21T07:28:21.007Z,67.40
2019-02-21T07:30:51.268Z,67.17
2019-02-21T07:33:28.299Z,64.43
2019-02-21T07:35:51.781Z,63.57
2019-02-21T07:38:21.051Z,66.87
2019-02-21T07:40:50.344Z,63.53
2019-02-21T07:43:20.565Z,70.23
2019-02-21T07:45:50.191Z,65.93
2019-02-21T07:48:19.441Z,62.13
2019-02-21T07:50:48.646Z,64.90
2019-02-21T07:53:17.880Z,64.80
2019-02-21T07:55:47.063Z,64.90
2019-02-21T07:58:16.252Z,63.17
2019-02-21T08:00:45.479Z,62.67
2019-02-21T08:03:14.774Z,62.67
2019-02-21T08:05:44.068Z,64.23
2019-02-21T08:08:13.531Z,69.73
2019-02-21T08:10:42.723Z,62.23
2019-02-21T08:13:12.110Z,63.20
2019-02-21T08:15:41.338Z,63.87
2019-02-21T08:18:10.556Z,66.53
2019-02-21T08:20:41.068Z,69.20
2019-02-21T08:23:11.442Z,65.93
2019-02-21T08:25:40.740Z,63.30
2019-02-21T08:28:10.031Z,60.53
2019-02-21T08:30:39.436Z,66.67
2019-02-21T08:33:16.512Z,64.17
2019-02-21T08:36:04.875Z,62.23
2019-02-21T08:38:34.278Z,62.43
2019-02-21T08:41:03.518Z,61.13
2019-02-21T08:43:32.923Z,64.67
2019-02-21T08:46:02.206Z,60.70
2019-02-21T08:48:31.415Z,59.43
2019-02-21T08:51:00.720Z,68.40
2019-02-21T08:53:29.929Z,59.53
2019-02-21T08:55:59.479Z,55.33
2019-02-21T08:58:28.748Z,60.80
2019-02-21T09:00:57.943Z,57.57
2019-02-21T09:03:27.139Z,60.83
2019-02-21T09:05:56.437Z,63.70
2019-02-21T09:08:32.985Z,55.73
2019-02-21T09:10:56.647Z,59.00
2019-02-21T09:13:25.855Z,56.50
2019-02-21T09:15:55.903Z,58.50
2019-02-21T09:18:25.423Z,54.80
2019-02-21T09:20:54.643Z,53.70
2019-02-21T09:23:23.858Z,53.60
2019-02-21T09:25:53.118Z,48.00
2019-02-21T09:28:22.345Z,52.27
2019-02-21T09:30:51.631Z,51.03
2019-02-21T09:33:21.490Z,51.63
2019-02-21T09:35:51.071Z,54.07
2019-02-21T09:38:20.646Z,51.27
2019-02-21T09:40:49.953Z,51.97
2019-02-21T09:43:19.306Z,50.77
2019-02-21T09:45:48.535Z,51.10
2019-02-21T09:48:17.795Z,46.37
2019-02-21T09:50:47.065Z,47.63
2019-02-21T09:53:16.386Z,45.93
2019-02-21T09:55:45.581Z,48.23
2019-02-21T09:58:14.802Z,45.63
2019-02-21T10:00:44.252Z,46.27
2019-02-21T10:03:13.590Z,45.27
2019-02-21T10:05:42.910Z,43.13
2019-02-21T10:08:12.276Z,44.93
2019-02-21T10:10:41.453Z,46.37
2019-02-21T10:13:13.146Z,43.80
2019-02-21T10:15:41.894Z,38.37
2019-02-21T10:18:11.179Z,39.27
2019-02-21T10:20:40.430Z,40.83
2019-02-21T10:23:09.720Z,41.87
2019-02-21T10:25:38.953Z,42.37
2019-02-21T10:28:08.198Z,37.80
2019-02-21T10:30:37.495Z,37.27
2019-02-21T10:33:06.704Z,41.30
2019-02-21T10:35:36.083Z,42.80
2019-02-21T10:38:05.753Z,36.03
2019-02-21T10:40:35.028Z,40.73
2019-02-21T10:43:04.342Z,35.40
2019-02-21T10:45:33.605Z,35.00
2019-02-21T10:48:02.809Z,34.63
2019-02-21T10:50:32.038Z,32.87
2019-02-21T10:53:01.231Z,35.10
2019-02-21T10:55:30.499Z,34.23
2019-02-21T10:57:59.744Z,31.67
2019-02-21T11:00:29.567Z,35.97
2019-02-21T11:02:58.866Z,30.10
2019-02-21T11:05:28.180Z,37.17
2019-02-21T11:07:57.410Z,33.03
2019-02-21T11:10:28.188Z,33.03
2019-02-21T11:12:57.524Z,33.13
2019-02-21T11:15:26.848Z,37.77
2019-02-21T11:17:56.062Z,36.10
2019-02-21T11:20:25.584Z,38.80
2019-02-21T11:22:54.810Z,34.53
2019-02-21T11:25:24.060Z,31.27
2019-02-21T11:27:53.371Z,32.20
2019-02-21T11:30:22.843Z,35.87
2019-02-21T11:32:52.148Z,33.83
2019-02-21T11:35:21.521Z,32.43
2019-02-21T11:37:50.795Z,36.20
2019-02-21T11:40:20.015Z,36.67
2019-02-21T11:42:49.408Z,31.43
2019-02-21T11:45:18.997Z,41.43
2019-02-21T11:47:48.394Z,41.50
2019-02-21T11:50:17.873Z,36.77
2019-02-21T11:52:47.144Z,41.17
2019-02-21T11:55:20.872Z,38.77
2019-02-21T11:57:50.057Z,40.33
2019-02-21T12:00:21.698Z,40.17
2019-02-21T12:02:51.026Z,44.37
2019-02-21T12:05:30.503Z,41.80
2019-02-21T12:07:51.181Z,40.97
2019-02-21T12:10:20.639Z,42.63
2019-02-21T12:12:49.840Z,41.37
2019-02-21T12:15:38.167Z,40.63
2019-02-21T12:18:07.409Z,40.47
2019-02-21T12:20:36.667Z,42.03
2019-02-21T12:23:06.345Z,39.03
2019-02-21T12:25:35.581Z,39.50
2019-02-21T12:28:04.795Z,39.63
2019-02-21T12:30:34.057Z,40.43
2019-02-21T12:33:03.335Z,38.27
2019-02-21T12:35:32.558Z,38.47
2019-02-21T12:38:01.930Z,38.67
2019-02-21T12:40:31.310Z,39.93
2019-02-21T12:43:00.532Z,40.87
2019-02-21T12:45:30.201Z,42.63
2019-02-21T12:47:59.926Z,38.70
2019-02-21T12:50:29.230Z,40.47
2019-02-21T12:52:58.438Z,37.47
2019-02-21T12:55:31.622Z,41.60
2019-02-21T12:57:58.705Z,37.27
2019-02-21T13:00:27.913Z,41.10
2019-02-21T13:02:58.424Z,38.03
2019-02-21T13:05:27.667Z,44.63
2019-02-21T13:07:57.118Z,38.63
2019-02-21T13:10:26.456Z,43.33
2019-02-21T13:12:55.799Z,39.57
2019-02-21T13:15:25.092Z,34.93
2019-02-21T13:17:54.342Z,38.77
2019-02-21T13:20:23.769Z,34.13
2019-02-21T13:22:52.971Z,36.63
2019-02-21T13:25:22.237Z,34.57
2019-02-21T13:27:51.449Z,36.40
2019-02-21T13:30:20.808Z,35.37
2019-02-21T13:32:50.115Z,29.80
2019-02-21T13:35:19.529Z,30.37
2019-02-21T13:37:48.784Z,33.80
2019-02-21T13:40:21.042Z,29.27
2019-02-21T13:42:49.031Z,30.20
2019-02-21T13:45:18.404Z,27.27
2019-02-21T13:47:47.595Z,33.10
2019-02-21T13:50:17.227Z,29.53
2019-02-21T13:52:46.541Z,30.73
2019-02-21T13:55:15.884Z,30.67
2019-02-21T13:57:45.104Z,30.37
2019-02-21T14:00:18.331Z,28.20
2019-02-21T14:02:47.606Z,28.60
2019-02-21T14:05:16.831Z,31.10
2019-02-21T14:07:46.250Z,27.07
2019-02-21T14:10:15.767Z,29.90
2019-02-21T14:12:44.998Z,30.17
2019-02-21T14:15:16.344Z,29.70
2019-02-21T14:17:46.634Z,31.07
2019-02-21T14:20:16.278Z,31.90
2019-02-21T14:22:45.603Z,27.17
2019-02-21T14:25:14.878Z,25.10
2019-02-21T14:27:44.143Z,25.03
2019-02-21T14:30:15.620Z,21.43
2019-02-21T14:32:44.899Z,20.87
2019-02-21T14:35:15.314Z,21.17
2019-02-21T14:37:44.685Z,16.27
2019-02-21T14:40:33.114Z,18.70
2019-02-21T14:43:02.426Z,14.33
2019-02-21T14:45:31.705Z,15.27
2019-02-21T14:48:01.193Z,15.40
2019-02-21T14:50:30.413Z,12.57
2019-02-21T14:52:59.689Z,13.83
2019-02-21T14:55:30.203Z,17.87
2019-02-21T14:57:59.559Z,17.40
2019-02-21T15:00:28.762Z,13.43
2019-02-21T15:02:58.214Z,17.90
2019-02-21T15:05:27.457Z,12.80
2019-02-21T15:07:56.801Z,12.60
2019-02-21T15:10:26.039Z,14.87
2019-02-21T15:12:55.357Z,11.60
2019-02-21T15:15:24.704Z,15.07
2019-02-21T15:17:54.154Z,14.40
2019-02-21T15:20:23.514Z,16.93
2019-02-21T15:22:54.011Z,16.53
2019-02-21T15:25:23.457Z,14.57
2019-02-21T15:27:52.784Z,16.37
2019-02-21T15:30:22.190Z,13.87
2019-02-21T15:32:51.446Z,17.50
2019-02-21T15:35:20.834Z,15.50
2019-02-21T15:37:50.532Z,15.73
2019-02-21T15:40:19.876Z,17.47
2019-02-21T15:42:49.204Z,14.33
2019-02-21T15:45:23.439Z,14.27
2019-02-21T15:47:51.194Z,17.17
2019-02-21T15:50:20.728Z,15.70
2019-02-21T15:52:50.187Z,15.03
2019-02-21T15:55:20.536Z,16.40
2019-02-21T15:57:49.753Z,16.47
2019-02-21T16:00:19.122Z,15.73
2019-02-21T16:02:48.435Z,16.80
2019-02-21T16:05:17.664Z,18.30
2019-02-21T16:07:46.886Z,14.97
2019-02-21T16:10:18.620Z,19.07
2019-02-21T16:12:48.704Z,13.83
2019-02-21T16:15:18.421Z,14.20
2019-02-21T16:17:47.790Z,17.83
2019-02-21T16:20:17.193Z,16.13
2019-02-21T16:22:46.891Z,17.00
2019-02-21T16:25:18.114Z,13.50
2019-02-21T16:27:47.414Z,14.63
2019-02-21T16:30:35.878Z,19.43
2019-02-21T16:33:05.488Z,15.37
2019-02-21T16:35:34.937Z,17.50
2019-02-21T16:38:04.220Z,20.53
2019-02-21T16:40:33.724Z,17.67
2019-02-21T16:43:03.085Z,24.67
2019-02-21T16:45:43.070Z,19.97
2019-02-21T16:48:03.402Z,19.80
2019-02-21T16:50:33.114Z,19.30
2019-02-21T16:53:02.473Z,22.27
2019-02-21T16:55:31.879Z,21.60
2019-02-21T16:58:01.349Z,23.97
2019-02-21T17:00:47.414Z,23.97
2019-02-21T17:03:04.937Z,28.10
2019-02-21T17:05:34.138Z,31.33
2019-02-21T17:08:03.462Z,28.73
2019-02-21T17:10:32.670Z,33.57
2019-02-21T17:13:02.032Z,31.17
2019-02-21T17:15:31.428Z,34.57
2019-02-21T17:18:03.874Z,32.27
2019-02-21T17:20:31.560Z,37.47
2019-02-21T17:23:00.842Z,38.37
2019-02-21T17:25:49.125Z,38.97
2019-02-21T17:28:18.636Z,37.27
2019-02-21T17:30:47.847Z,39.67
2019-02-21T17:33:17.044Z,43.57
2019-02-21T17:35:46.302Z,39.97
2019-02-21T17:38:15.619Z,43.27
2019-02-21T17:40:44.891Z,48.87
2019-02-21T17:43:14.170Z,48.37
2019-02-21T17:45:43.379Z,49.07
2019-02-21T17:48:12.815Z,49.63
2019-02-21T17:50:43.296Z,47.97
2019-02-21T17:53:12.591Z,48.37
2019-02-21T17:55:42.224Z,55.07
2019-02-21T17:58:11.686Z,61.27
2019-02-21T18:00:41.051Z,59.63
2019-02-21T18:03:10.697Z,56.13
2019-02-21T18:05:40.151Z,57.70
2019-02-21T18:08:09.394Z,54.27
2019-02-21T18:10:38.807Z,55.90
2019-02-21T18:13:08.201Z,64.67
2019-02-21T18:15:37.888Z,59.20
2019-02-21T18:18:07.179Z,58.87
2019-02-21T18:20:36.408Z,60.77
2019-02-21T18:23:05.733Z,56.80
2019-02-21T18:25:38.565Z,65.80
2019-02-21T18:28:07.929Z,61.73
2019-02-21T18:30:37.611Z,61.93
2019-02-21T18:33:07.090Z,72.87
2019-02-21T18:35:36.502Z,71.63
2019-02-21T18:38:05.822Z,67.27
2019-02-21T18:40:35.225Z,73.53
2019-02-21T18:43:04.786Z,70.23
2019-02-21T18:45:34.380Z,67.63
2019-02-21T18:48:03.621Z,70.03
2019-02-21T18:50:38.226Z,67.73
2019-02-21T18:53:04.362Z,75.63
2019-02-21T18:55:34.208Z,73.80
2019-02-21T18:58:03.507Z,80.17
2019-02-21T19:00:51.964Z,81.17
2019-02-21T19:03:21.276Z,70.60
2019-02-21T19:05:50.580Z,73.07
2019-02-21T19:08:19.898Z,73.50
2019-02-21T19:10:49.148Z,63.73
2019-02-21T19:13:18.557Z,71.40
2019-02-21T19:15:48.119Z,78.10
2019-02-21T19:18:17.425Z,75.27
2019-02-21T19:20:46.816Z,70.60
2019-02-21T19:23:16.382Z,77.87
2019-02-21T19:25:45.587Z,79.57
2019-02-21T19:28:14.924Z,84.60
2019-02-21T19:30:48.494Z,84.53
2019-02-21T19:33:17.991Z,75.33
2019-02-21T19:35:48.592Z,82.10
2019-02-21T19:38:18.119Z,80.87
2019-02-21T19:40:47.431Z,75.23
2019-02-21T19:43:16.637Z,74.90
2019-02-21T19:45:45.951Z,79.73
2019-02-21T19:48:15.238Z,84.47
2019-02-21T19:50:44.498Z,83.73
2019-02-21T19:53:14.461Z,85.87
2019-02-21T19:55:44.158Z,86.57
2019-02-21T19:58:13.438Z,80.53
2019-02-21T20:00:42.658Z,85.40
2019-02-21T20:03:11.986Z,85.60
2019-02-21T20:05:41.420Z,83.63
2019-02-21T20:08:21.061Z,80.57
2019-02-21T20:10:41.808Z,87.63
2019-02-21T20:13:11.435Z,88.03
2019-02-21T20:15:40.950Z,88.23
2019-02-21T20:18:10.226Z,90.83
2019-02-21T20:20:39.418Z,89.47
2019-02-21T20:23:08.718Z,97.23
2019-02-21T20:25:37.992Z,82.57
2019-02-21T20:28:07.298Z,99.60
2019-02-21T20:30:36.628Z,97.50
2019-02-21T20:33:05.896Z,89.10
2019-02-21T20:35:35.111Z,96.63
2019-02-21T20:38:04.504Z,100.03
2019-02-21T20:40:33.809Z,98.87
2019-02-21T20:43:03.030Z,98.57
2019-02-21T20:45:32.313Z,101.80
2019-02-21T20:48:01.512Z,95.37
2019-02-21T20:50:30.877Z,87.37
2019-02-21T20:53:02.765Z,102.63
2019-02-21T20:55:31.805Z,98.60
2019-02-21T20:58:01.025Z,92.97
2019-02-21T21:00:30.938Z,94.67
2019-02-21T21:03:00.343Z,99.37
2019-02-21T21:05:29.725Z,105.47
2019-02-21T21:07:59.211Z,98.83
2019-02-21T21:10:28.472Z,94.27
2019-02-21T21:12:57.669Z,95.87
2019-02-21T21:15:31.298Z,95.93
2019-02-21T21:18:00.750Z,99.43
2019-02-21T21:20:30.031Z,94.73
2019-02-21T21:23:00.300Z,95.80
2019-02-21T21:25:31.879Z,92.93
2019-02-21T21:28:00.886Z,97.23
2019-02-21T21:30:30.243Z,99.23
2019-02-21T21:32:59.452Z,98.37
2019-02-21T21:35:32.117Z,102.40
2019-02-21T21:38:01.386Z,98.23
2019-02-21T21:40:30.682Z,103.40
2019-02-21T21:42:59.948Z,95.53
2019-02-21T21:45:29.359Z,110.50
2019-02-21T21:47:58.676Z,117.27
2019-02-21T21:50:28.213Z,106.43
2019-02-21T21:52:57.627Z,109.00
2019-02-21T21:55:26.895Z,107.30
2019-02-21T21:57:56.224Z,115.70
2019-02-21T22:00:25.640Z,108.53
2019-02-21T22:02:54.870Z,114.17
2019-02-21T22:05:24.142Z,108.13
2019-02-21T22:07:53.463Z,108.30
2019-02-21T22:10:22.663Z,113.03
2019-02-21T22:12:51.872Z,89.97
2019-02-21T22:15:21.533Z,102.73
2019-02-21T22:18:09.887Z,102.57
2019-02-21T22:20:39.218Z,102.73
2019-02-21T22:23:08.573Z,108.67
2019-02-21T22:25:37.828Z,107.00
2019-02-21T22:28:07.059Z,99.47
2019-02-21T22:30:37.211Z,107.07
2019-02-21T22:33:06.609Z,102.60
2019-02-21T22:35:35.891Z,99.00
2019-02-21T22:38:05.171Z,93.73
2019-02-21T22:40:34.392Z,101.87
2019-02-21T22:43:03.712Z,102.30
2019-02-21T22:45:32.911Z,96.00
2019-02-21T22:48:02.116Z,98.40
2019-02-21T22:50:31.644Z,101.57
2019-02-21T22:53:00.863Z,102.57
2019-02-21T22:55:30.242Z,105.93
2019-02-21T22:57:59.640Z,96.60
2019-02-21T23:00:59.497Z,105.03
2019-02-21T23:03:33.180Z,101.97
2019-02-21T23:06:52.499Z,113.77
2019-02-21T23:09:27.415Z,101.43
2019-02-21T23:11:55.135Z,99.53
2019-02-21T23:14:24.320Z,106.03
2019-02-21T23:16:53.647Z,98.87
2019-02-21T23:19:24.215Z,104.67
2019-02-21T23:21:53.640Z,110.17
2019-02-21T23:24:22.929Z,101.60
2019-02-21T23:26:52.150Z,99.83
2019-02-21T23:29:21.502Z,95.60
2019-02-21T23:31:50.830Z,96.60
2019-02-21T23:34:27.845Z,94.37
2019-02-21T23:36:57.313Z,89.67
2019-02-21T23:39:37.588Z,91.33
2019-02-21T23:41:57.596Z,99.20
2019-02-21T23:44:26.842Z,88.17
2019-02-21T23:46:56.143Z,95.13
2019-02-21T23:49:25.509Z,95.43
2019-02-21T23:51:54.869Z,111.07
2019-02-21T23:54:24.063Z,89.17
2019-02-21T23:56:53.255Z,96.07
2019-02-21T23:59:22.545Z,95.63
